Time;durP1;ratioP1;P1;durP2;ratioP2;P2;SDS_P1;SDS_P2;PMS_P1;PMS_P2;Temp;Humidity;BMP_temperature;BMP_pressure;BME280_temperature;BME280_humidity;BME280_pressure;Samples;Min_cycle;Max_cycle;Signal;HPM_P1;HPM_P2
2023/12/19 00:00:28;;;;;;;25.38;17.02;;;6.50;99.90;;;;;;4265090;27;20106;-59
2023/12/19 00:02:30;;;;;;;22.77;15.80;;;6.40;99.90;;;;;;4265001;27;20104;-61
2023/12/19 00:04:33;;;;;;;23.05;17.30;;;6.40;99.90;;;;;;4266390;27;20063;-62
2023/12/19 00:06:35;;;;;;;22.27;15.13;;;6.50;99.90;;;;;;4267082;27;20064;-60
2023/12/19 00:08:38;;;;;;;25.92;17.58;;;6.50;99.90;;;;;;4270107;27;20046;-60
2023/12/19 00:10:42;;;;;;;23.00;14.95;;;6.40;99.90;;;;;;4269328;27;20046;-59
2023/12/19 00:12:45;;;;;;;21.35;14.63;;;6.40;99.90;;;;;;4268287;27;20042;-60
2023/12/19 00:14:48;;;;;;;22.60;15.52;;;6.60;99.90;;;;;;4267696;27;20063;-59
2023/12/19 00:16:50;;;;;;;23.52;15.10;;;6.60;99.90;;;;;;4268040;27;20250;-59
2023/12/19 00:18:52;;;;;;;23.10;15.90;;;6.70;99.90;;;;;;4267852;27;20099;-60
2023/12/19 00:20:55;;;;;;;24.48;15.25;;;6.70;99.90;;;;;;4267877;27;20050;-59
2023/12/19 00:22:59;;;;;;;21.58;14.45;;;6.60;99.90;;;;;;4267692;27;20043;-61
2023/12/19 00:25:01;;;;;;;24.58;16.48;;;6.60;99.90;;;;;;4267463;27;20408;-61
2023/12/19 00:27:04;;;;;;;26.92;17.63;;;6.60;99.90;;;;;;4267943;27;20047;-60
2023/12/19 00:29:07;;;;;;;18.38;14.15;;;6.60;99.90;;;;;;4267117;27;20045;-61
2023/12/19 00:31:17;;;;;;;22.90;17.52;;;6.60;99.90;;;;;;4267922;27;20050;-60
2023/12/19 00:33:19;;;;;;;23.38;15.85;;;6.50;99.90;;;;;;4267864;27;20053;-60
2023/12/19 00:35:21;;;;;;;22.88;15.63;;;6.50;99.90;;;;;;4267792;27;20047;-60
2023/12/19 00:37:23;;;;;;;26.83;16.73;;;6.50;99.90;;;;;;4267419;27;20058;-60
2023/12/19 00:39:26;;;;;;;22.95;16.17;;;6.40;99.90;;;;;;4268322;27;20121;-61
2023/12/19 00:41:29;;;;;;;22.15;15.23;;;6.30;99.90;;;;;;4250563;27;20039;-60
2023/12/19 00:43:31;;;;;;;21.13;15.10;;;6.30;99.90;;;;;;4268257;27;20402;-69
2023/12/19 00:45:34;;;;;;;21.98;15.02;;;6.30;99.90;;;;;;4268710;27;20054;-60
2023/12/19 00:47:38;;;;;;;20.55;14.57;;;6.40;99.90;;;;;;4267426;27;20047;-59
2023/12/19 00:49:42;;;;;;;18.48;10.40;;;6.50;99.90;;;;;;4267217;27;20046;-59
2023/12/19 00:51:44;;;;;;;25.77;15.10;;;6.50;99.90;;;;;;4267036;27;20042;-60
2023/12/19 00:53:46;;;;;;;27.63;16.10;;;6.60;99.90;;;;;;4267400;27;20500;-59
2023/12/19 00:55:48;;;;;;;20.10;14.48;;;6.60;99.90;;;;;;4266916;27;20050;-59
2023/12/19 00:57:50;;;;;;;23.50;15.95;;;6.70;99.90;;;;;;4266487;27;20049;-61
2023/12/19 00:59:52;;;;;;;21.95;15.48;;;6.60;99.90;;;;;;4267260;27;20043;-59
2023/12/19 01:01:56;;;;;;;18.55;12.98;;;6.60;99.90;;;;;;4267131;27;20042;-60
2023/12/19 01:03:58;;;;;;;18.77;14.57;;;6.60;99.90;;;;;;4267961;27;20043;-61
2023/12/19 01:06:03;;;;;;;20.27;14.25;;;6.50;99.90;;;;;;4268254;27;20504;-61
2023/12/19 01:08:05;;;;;;;21.92;14.80;;;6.60;99.90;;;;;;4268353;27;20470;-61
2023/12/19 01:10:08;;;;;;;19.63;14.13;;;6.70;99.90;;;;;;4248902;27;20078;-61
2023/12/19 01:12:10;;;;;;;22.52;15.30;;;6.70;99.90;;;;;;4267304;27;20059;-60
2023/12/19 01:14:12;;;;;;;22.45;15.57;;;6.70;99.90;;;;;;4266605;27;20466;-59
2023/12/19 01:16:15;;;;;;;22.02;15.15;;;6.70;99.90;;;;;;4267064;27;20062;-60
2023/12/19 01:18:19;;;;;;;19.42;13.90;;;6.60;99.90;;;;;;4266548;27;20099;-61
2023/12/19 01:20:21;;;;;;;24.98;16.98;;;6.50;99.90;;;;;;4266709;27;20070;-60
2023/12/19 01:22:24;;;;;;;24.70;16.70;;;6.70;99.90;;;;;;4266962;27;20073;-60
2023/12/19 01:24:26;;;;;;;21.63;15.50;;;6.60;99.90;;;;;;4266919;27;20069;-60
2023/12/19 01:26:30;;;;;;;23.95;15.55;;;6.60;99.90;;;;;;4266830;27;20328;-60
2023/12/19 01:28:33;;;;;;;24.87;15.10;;;6.60;99.90;;;;;;4266664;27;20393;-60
2023/12/19 01:30:35;;;;;;;20.30;14.43;;;6.70;99.90;;;;;;4266773;27;20074;-60
2023/12/19 01:32:37;;;;;;;35.47;14.18;;;6.70;99.90;;;;;;4266326;27;20121;-60
2023/12/19 01:34:41;;;;;;;20.63;14.88;;;6.80;99.90;;;;;;4266341;27;20112;-60
2023/12/19 01:36:45;;;;;;;19.77;14.07;;;6.90;99.90;;;;;;4266220;27;20561;-60
2023/12/19 01:38:59;;;;;;;22.08;15.50;;;6.90;99.90;;;;;;4266716;27;20053;-61
2023/12/19 01:41:02;;;;;;;20.38;14.48;;;6.90;99.90;;;;;;4266483;27;20151;-60
2023/12/19 01:43:16;;;;;;;18.90;12.52;;;6.90;99.90;;;;;;4267060;27;20130;-67
2023/12/19 01:45:19;;;;;;;19.00;14.40;;;6.90;99.90;;;;;;4269616;27;20106;-61
2023/12/19 01:47:23;;;;;;;19.85;14.25;;;7.00;99.90;;;;;;4249492;27;20047;-60
2023/12/19 01:49:25;;;;;;;19.65;14.25;;;6.90;99.90;;;;;;4266916;27;20541;-60
2023/12/19 01:51:29;;;;;;;21.52;14.90;;;6.90;99.90;;;;;;4266366;27;20497;-60
2023/12/19 01:53:32;;;;;;;22.02;13.95;;;6.80;99.90;;;;;;4266140;27;20073;-60
2023/12/19 01:55:35;;;;;;;22.63;15.95;;;6.90;99.90;;;;;;4248025;27;20050;-60
2023/12/19 01:57:38;;;;;;;18.38;14.18;;;6.90;99.90;;;;;;4265881;27;20039;-60
2023/12/19 01:59:40;;;;;;;18.00;13.73;;;7.00;99.90;;;;;;4265988;27;20047;-60
2023/12/19 02:01:44;;;;;;;18.75;13.70;;;7.00;99.90;;;;;;4266395;27;20076;-60
2023/12/19 02:03:47;;;;;;;19.20;14.23;;;7.10;99.90;;;;;;4265896;27;20558;-60
2023/12/19 02:05:52;;;;;;;19.80;13.07;;;7.00;99.90;;;;;;4247605;27;20502;-60
2023/12/19 02:07:57;;;;;;;19.98;14.50;;;7.10;99.90;;;;;;4265884;27;20057;-59
2023/12/19 02:10:00;;;;;;;17.95;13.13;;;7.10;99.90;;;;;;4266043;27;20046;-59
2023/12/19 02:12:02;;;;;;;18.88;13.52;;;7.10;99.90;;;;;;4265413;27;20046;-60
2023/12/19 02:14:04;;;;;;;17.83;13.27;;;7.10;99.90;;;;;;4265765;27;20125;-60
2023/12/19 02:16:06;;;;;;;17.23;13.02;;;7.20;99.90;;;;;;4265870;27;20043;-61
2023/12/19 02:18:16;;;;;;;20.13;14.05;;;7.30;99.90;;;;;;4266233;27;20477;-60
2023/12/19 02:20:19;;;;;;;14.98;11.02;;;7.30;99.90;;;;;;4258348;27;20055;-61
2023/12/19 02:22:22;;;;;;;19.40;13.18;;;7.30;99.90;;;;;;4248946;27;20051;-60
2023/12/19 02:24:25;;;;;;;19.05;13.80;;;7.30;99.90;;;;;;4249341;27;20059;-59
2023/12/19 02:26:28;;;;;;;18.00;12.73;;;7.20;99.90;;;;;;4248828;27;20096;-60
2023/12/19 02:28:30;;;;;;;21.08;14.00;;;7.20;99.90;;;;;;4248370;27;20043;-60
2023/12/19 02:30:34;;;;;;;22.45;13.52;;;7.00;99.90;;;;;;4247502;27;20122;-59
2023/12/19 02:32:37;;;;;;;16.38;10.75;;;7.00;99.90;;;;;;4248199;27;20078;-59
2023/12/19 02:34:39;;;;;;;21.17;13.68;;;7.30;99.90;;;;;;4248478;27;20062;-59
2023/12/19 02:36:41;;;;;;;20.55;12.60;;;7.30;99.90;;;;;;4248277;27;20082;-60
2023/12/19 02:38:43;;;;;;;17.75;11.68;;;7.40;99.90;;;;;;4248416;27;20047;-59
2023/12/19 02:40:47;;;;;;;16.88;11.93;;;7.30;99.90;;;;;;4247896;27;20078;-60
2023/12/19 02:42:49;;;;;;;18.55;13.57;;;7.20;99.90;;;;;;4248386;27;20463;-60
2023/12/19 02:44:51;;;;;;;16.85;11.90;;;7.20;99.90;;;;;;4248439;27;20066;-60
2023/12/19 02:46:53;;;;;;;18.60;13.02;;;7.30;99.90;;;;;;4248023;27;20077;-60
2023/12/19 02:48:55;;;;;;;18.30;12.43;;;7.30;99.90;;;;;;4247855;27;20482;-60
2023/12/19 02:50:57;;;;;;;19.92;12.77;;;7.20;99.90;;;;;;4248292;27;20047;-60
2023/12/19 02:52:59;;;;;;;21.48;12.57;;;7.20;99.90;;;;;;4248285;27;20057;-60
2023/12/19 02:55:02;;;;;;;16.73;11.15;;;7.30;99.90;;;;;;4248189;27;20055;-60
2023/12/19 02:57:05;;;;;;;20.70;13.60;;;7.40;99.90;;;;;;4248273;27;20401;-60
2023/12/19 02:59:07;;;;;;;17.75;12.90;;;7.40;99.90;;;;;;4248218;27;20130;-61
2023/12/19 03:01:09;;;;;;;18.20;12.18;;;7.40;99.90;;;;;;4248215;27;20070;-60
2023/12/19 03:03:12;;;;;;;17.08;12.05;;;7.40;99.90;;;;;;4248178;27;20429;-60
2023/12/19 03:05:14;;;;;;;15.20;10.88;;;7.40;99.90;;;;;;4247748;27;20051;-59
2023/12/19 03:07:16;;;;;;;18.73;12.15;;;7.50;99.90;;;;;;4229783;28;20044;-59
2023/12/19 03:09:18;;;;;;;16.95;12.40;;;7.40;99.90;;;;;;4247663;27;20081;-59
2023/12/19 03:11:20;;;;;;;18.65;12.45;;;7.50;99.90;;;;;;4247875;27;20060;-59
2023/12/19 03:13:24;;;;;;;16.85;12.43;;;7.50;99.90;;;;;;4247944;27;20073;-60
2023/12/19 03:15:27;;;;;;;21.48;14.10;;;7.50;99.90;;;;;;4247781;27;20157;-60
2023/12/19 03:17:30;;;;;;;14.77;10.10;;;7.50;99.90;;;;;;4247843;27;20465;-61
2023/12/19 03:19:32;;;;;;;14.70;10.80;;;7.60;99.90;;;;;;4248401;27;20135;-61
2023/12/19 03:21:35;;;;;;;18.45;11.60;;;7.60;99.90;;;;;;4265010;27;20042;-59
2023/12/19 03:23:38;;;;;;;17.30;11.60;;;7.60;99.90;;;;;;4264459;27;20510;-60
2023/12/19 03:25:40;;;;;;;16.50;11.55;;;7.70;99.90;;;;;;4265006;27;20148;-60
2023/12/19 03:27:42;;;;;;;16.60;11.48;;;7.70;99.90;;;;;;4265056;27;20055;-60
2023/12/19 03:29:45;;;;;;;13.63;9.90;;;7.80;99.90;;;;;;4265661;27;20042;-61
2023/12/19 03:31:48;;;;;;;15.15;11.18;;;7.80;99.90;;;;;;4267932;27;20408;-65
2023/12/19 03:33:50;;;;;;;14.57;10.70;;;7.90;99.90;;;;;;4265900;27;20405;-60
2023/12/19 03:35:52;;;;;;;18.33;11.88;;;7.90;99.90;;;;;;4264698;27;20043;-60
2023/12/19 03:37:54;;;;;;;18.60;12.23;;;7.90;99.90;;;;;;4264809;27;20442;-60
2023/12/19 03:39:57;;;;;;;18.70;12.07;;;7.90;99.90;;;;;;4264764;27;20043;-60
2023/12/19 03:42:00;;;;;;;18.67;10.60;;;8.00;99.90;;;;;;4267277;27;20103;-60
2023/12/19 03:44:13;;;;;;;16.02;10.80;;;8.00;99.90;;;;;;4268266;27;20050;-60
2023/12/19 03:46:17;;;;;;;18.27;10.95;;;7.90;99.90;;;;;;4268221;27;20090;-60
2023/12/19 03:48:19;;;;;;;15.98;10.85;;;8.00;99.90;;;;;;4268073;27;20039;-60
2023/12/19 03:50:22;;;;;;;14.50;10.25;;;8.20;99.90;;;;;;4268042;27;20074;-60
2023/12/19 03:52:24;;;;;;;17.10;11.90;;;8.10;99.90;;;;;;4267844;27;20151;-60
2023/12/19 03:54:27;;;;;;;18.08;11.73;;;8.20;99.90;;;;;;4268087;27;20066;-61
2023/12/19 03:56:30;;;;;;;20.25;12.00;;;8.00;99.90;;;;;;4268141;27;20098;-60
2023/12/19 03:58:32;;;;;;;18.73;12.32;;;7.90;99.90;;;;;;4268279;27;20447;-62
2023/12/19 04:00:34;;;;;;;17.88;12.65;;;8.00;99.90;;;;;;4267961;27;20050;-60
2023/12/19 04:02:38;;;;;;;16.05;11.18;;;8.00;99.90;;;;;;4269138;27;20070;-60
2023/12/19 04:04:40;;;;;;;18.42;11.65;;;7.90;99.90;;;;;;4269915;27;20047;-61
2023/12/19 04:06:43;;;;;;;15.90;10.88;;;8.00;99.90;;;;;;4269305;27;20047;-60
2023/12/19 04:08:45;;;;;;;14.60;11.10;;;8.00;99.90;;;;;;4268227;27;20091;-60
2023/12/19 04:10:47;;;;;;;15.48;12.15;;;7.90;99.90;;;;;;4269488;27;20042;-60
2023/12/19 04:12:50;;;;;;;16.73;12.13;;;8.00;99.90;;;;;;4269445;27;20438;-64
2023/12/19 04:14:52;;;;;;;17.75;12.18;;;8.00;99.90;;;;;;4269824;27;20066;-61
2023/12/19 04:16:54;;;;;;;18.75;11.75;;;8.00;99.90;;;;;;4268278;27;20066;-61
2023/12/19 04:18:57;;;;;;;17.67;12.13;;;8.00;99.90;;;;;;4268330;27;20467;-61
2023/12/19 04:20:59;;;;;;;17.35;12.82;;;7.90;99.90;;;;;;4267399;27;20039;-61
2023/12/19 04:23:02;;;;;;;14.70;10.23;;;7.90;99.90;;;;;;4267433;27;20099;-62
2023/12/19 04:25:05;;;;;;;16.88;10.63;;;7.90;99.90;;;;;;4267761;27;20060;-61
2023/12/19 04:27:07;;;;;;;17.83;11.30;;;7.90;99.90;;;;;;4267580;27;20042;-61
2023/12/19 04:29:09;;;;;;;14.70;10.30;;;7.90;99.90;;;;;;4267401;27;20490;-60
2023/12/19 04:31:11;;;;;;;21.83;12.73;;;8.00;99.90;;;;;;4267655;27;20081;-61
2023/12/19 04:33:14;;;;;;;15.95;10.82;;;8.00;99.90;;;;;;4267434;27;20043;-60
2023/12/19 04:35:17;;;;;;;19.15;11.65;;;8.10;99.90;;;;;;4267510;27;20462;-60
2023/12/19 04:37:19;;;;;;;17.20;11.88;;;8.10;99.90;;;;;;4267057;27;20054;-61
2023/12/19 04:39:21;;;;;;;18.35;11.80;;;8.10;99.90;;;;;;4267125;27;20078;-61
2023/12/19 04:41:23;;;;;;;18.60;12.55;;;8.10;99.90;;;;;;4267228;27;20087;-59
2023/12/19 04:43:25;;;;;;;16.67;11.90;;;8.20;99.90;;;;;;4249087;27;20133;-60
2023/12/19 04:45:28;;;;;;;21.08;11.13;;;8.00;99.90;;;;;;4248801;27;20043;-61
2023/12/19 04:47:30;;;;;;;17.73;11.05;;;8.00;99.90;;;;;;4267380;27;20046;-61
2023/12/19 04:49:32;;;;;;;23.95;11.65;;;8.10;99.90;;;;;;4267330;27;20057;-61
2023/12/19 04:51:36;;;;;;;14.57;10.40;;;8.10;99.90;;;;;;4267129;27;20372;-60
2023/12/19 04:53:38;;;;;;;18.67;11.45;;;8.20;99.90;;;;;;4266399;27;20051;-61
2023/12/19 04:55:40;;;;;;;15.63;11.30;;;8.10;99.90;;;;;;4267390;27;20042;-61
2023/12/19 04:57:44;;;;;;;12.93;9.57;;;8.20;99.90;;;;;;4267253;27;20493;-61
2023/12/19 04:59:46;;;;;;;17.42;12.15;;;8.30;99.90;;;;;;4267229;27;20070;-61
2023/12/19 05:01:48;;;;;;;17.67;12.07;;;8.20;99.90;;;;;;4266972;27;20043;-61
2023/12/19 05:03:50;;;;;;;17.85;10.40;;;8.20;99.90;;;;;;4248735;27;20133;-61
2023/12/19 05:05:52;;;;;;;14.43;10.73;;;8.20;99.90;;;;;;4267249;27;20051;-61
2023/12/19 05:07:55;;;;;;;16.70;10.38;;;8.20;99.90;;;;;;4268514;27;20039;-65
2023/12/19 05:09:57;;;;;;;18.30;12.77;;;8.30;99.90;;;;;;4268795;27;20046;-61
2023/12/19 05:11:59;;;;;;;19.33;12.05;;;8.10;99.90;;;;;;4268922;27;20047;-62
2023/12/19 05:14:02;;;;;;;14.82;10.35;;;8.20;99.90;;;;;;4269772;27;20043;-61
2023/12/19 05:16:12;;;;;;;14.70;9.98;;;8.10;99.90;;;;;;4269701;27;20067;-61
2023/12/19 05:18:18;;;;;;;20.00;11.98;;;8.30;99.90;;;;;;4269373;27;20042;-66
2023/12/19 05:20:21;;;;;;;14.38;10.43;;;8.30;99.90;;;;;;4267617;27;20051;-61
2023/12/19 05:22:23;;;;;;;17.70;11.65;;;8.30;99.90;;;;;;4267433;27;20435;-60
2023/12/19 05:24:32;;;;;;;17.55;10.82;;;8.30;99.90;;;;;;4267709;27;20126;-60
2023/12/19 05:26:34;;;;;;;17.05;12.00;;;8.30;99.90;;;;;;4267536;27;20053;-60
2023/12/19 05:28:38;;;;;;;20.05;11.57;;;8.20;99.90;;;;;;4267308;27;20051;-61
2023/12/19 05:30:42;;;;;;;15.60;10.27;;;8.20;99.90;;;;;;4266687;27;20047;-61
2023/12/19 05:32:44;;;;;;;18.25;11.77;;;8.40;99.90;;;;;;4248287;27;20527;-61
2023/12/19 05:34:46;;;;;;;12.80;9.43;;;8.40;99.90;;;;;;4266466;27;20557;-61
2023/12/19 05:36:49;;;;;;;15.50;10.20;;;8.40;99.90;;;;;;4266267;27;20054;-61
2023/12/19 05:38:51;;;;;;;14.75;9.85;;;8.50;99.90;;;;;;4266655;27;20042;-60
2023/12/19 05:40:57;;;;;;;16.27;9.88;;;8.50;99.90;;;;;;4266480;27;20064;-60
2023/12/19 05:42:59;;;;;;;14.45;9.60;;;8.50;99.90;;;;;;4266469;27;20063;-60
2023/12/19 05:45:03;;;;;;;17.10;10.60;;;8.50;99.90;;;;;;4266327;27;20118;-61
2023/12/19 05:47:05;;;;;;;16.20;10.63;;;8.40;99.90;;;;;;4266550;27;20091;-60
2023/12/19 05:49:09;;;;;;;17.52;10.50;;;8.40;99.90;;;;;;4266405;27;20473;-60
2023/12/19 05:51:12;;;;;;;19.05;9.82;;;8.50;99.90;;;;;;4266208;27;20420;-61
2023/12/19 05:53:14;;;;;;;15.52;10.27;;;8.40;99.90;;;;;;4266157;27;20047;-60
2023/12/19 05:55:17;;;;;;;14.00;9.57;;;8.50;99.90;;;;;;4266301;27;20157;-60
2023/12/19 05:57:20;;;;;;;17.95;9.40;;;8.70;99.90;;;;;;4266082;27;20045;-60
2023/12/19 05:59:22;;;;;;;17.05;9.93;;;8.80;99.90;;;;;;4266170;27;20043;-62
2023/12/19 06:01:24;;;;;;;17.42;9.93;;;8.80;99.90;;;;;;4266283;27;20046;-61
2023/12/19 06:03:27;;;;;;;14.77;8.63;;;9.00;99.90;;;;;;4265738;27;20120;-61
2023/12/19 06:05:30;;;;;;;13.88;9.65;;;9.00;99.90;;;;;;4265060;27;20137;-61
2023/12/19 06:07:32;;;;;;;15.68;9.68;;;9.00;99.90;;;;;;4265838;27;20047;-61
2023/12/19 06:09:34;;;;;;;17.40;9.32;;;9.10;99.90;;;;;;4265746;27;20065;-61
2023/12/19 06:11:36;;;;;;;13.90;8.95;;;9.10;99.90;;;;;;4265727;27;20050;-60
2023/12/19 06:13:39;;;;;;;15.27;8.50;;;9.20;99.90;;;;;;4265894;27;20236;-60
2023/12/19 06:15:41;;;;;;;11.85;8.50;;;9.20;99.90;;;;;;4247597;27;20136;-60
2023/12/19 06:17:46;;;;;;;15.57;9.45;;;9.20;99.90;;;;;;4265566;27;20043;-60
2023/12/19 06:19:48;;;;;;;12.35;8.65;;;9.20;99.90;;;;;;4265696;27;20047;-61
2023/12/19 06:21:50;;;;;;;16.20;8.77;;;9.10;99.90;;;;;;4266837;27;20543;-62
2023/12/19 06:23:52;;;;;;;19.60;8.55;;;9.10;99.90;;;;;;4266374;27;20050;-61
2023/12/19 06:25:54;;;;;;;12.60;8.48;;;9.10;99.90;;;;;;4266092;27;20043;-60
2023/12/19 06:27:56;;;;;;;16.42;8.75;;;9.00;99.90;;;;;;4265692;27;20074;-60
2023/12/19 06:30:00;;;;;;;15.77;9.45;;;9.00;99.90;;;;;;4265451;27;20042;-61
2023/12/19 06:32:20;;;;;;;11.63;8.90;;;8.90;99.90;;;;;;4265204;27;20386;-61
2023/12/19 06:34:22;;;;;;;13.27;8.68;;;8.90;99.90;;;;;;4265748;27;20070;-61
2023/12/19 06:36:29;;;;;;;12.73;8.95;;;8.90;99.90;;;;;;4264705;27;20420;-61
2023/12/19 06:38:32;;;;;;;13.30;9.85;;;8.80;99.90;;;;;;4265454;27;20103;-61
2023/12/19 06:40:35;;;;;;;13.05;8.80;;;8.70;99.90;;;;;;4265293;27;20397;-62
2023/12/19 06:42:37;;;;;;;14.75;9.15;;;8.70;99.90;;;;;;4265553;27;20074;-61
2023/12/19 06:44:39;;;;;;;14.98;10.38;;;8.70;99.90;;;;;;4265422;27;20046;-61
2023/12/19 06:46:42;;;;;;;17.30;9.70;;;8.70;99.90;;;;;;4265286;27;20081;-60
2023/12/19 06:48:44;;;;;;;15.90;9.98;;;8.60;99.90;;;;;;4264590;27;20050;-60
2023/12/19 06:50:47;;;;;;;16.52;9.98;;;8.50;99.90;;;;;;4246986;27;20055;-64
2023/12/19 06:52:49;;;;;;;13.35;9.18;;;8.50;99.90;;;;;;4265309;27;20047;-61
2023/12/19 06:54:51;;;;;;;15.10;10.02;;;8.50;99.90;;;;;;4265292;27;20056;-62
2023/12/19 06:56:53;;;;;;;15.88;9.57;;;8.50;99.90;;;;;;4265310;27;20074;-60
2023/12/19 06:58:55;;;;;;;18.00;9.68;;;8.50;99.90;;;;;;4265506;27;20039;-61
2023/12/19 07:00:58;;;;;;;13.55;9.75;;;8.50;99.90;;;;;;4265351;27;20482;-62
2023/12/19 07:03:01;;;;;;;21.30;10.18;;;8.40;99.90;;;;;;4267382;27;20047;-63
2023/12/19 07:05:04;;;;;;;17.02;10.13;;;8.30;99.90;;;;;;4268107;27;20047;-61
2023/12/19 07:07:08;;;;;;;14.70;10.15;;;8.40;99.90;;;;;;4266049;27;20042;-61
2023/12/19 07:09:14;;;;;;;13.93;8.85;;;8.40;99.90;;;;;;4265004;27;20417;-61
2023/12/19 07:11:16;;;;;;;18.88;11.00;;;8.40;99.90;;;;;;4265385;27;20054;-61
2023/12/19 07:13:19;;;;;;;17.88;11.20;;;8.30;99.90;;;;;;4266091;27;20099;-60
2023/12/19 07:15:21;;;;;;;15.32;9.75;;;8.30;99.90;;;;;;4265028;27;20053;-60
2023/12/19 07:17:23;;;;;;;14.27;10.27;;;8.20;99.90;;;;;;4265039;27;20058;-61
2023/12/19 07:19:27;;;;;;;17.02;10.63;;;8.30;99.90;;;;;;4265480;27;20465;-60
2023/12/19 07:21:31;;;;;;;18.90;11.45;;;8.40;99.90;;;;;;4265529;27;20050;-61
2023/12/19 07:23:33;;;;;;;14.98;9.68;;;8.40;99.90;;;;;;4268342;27;20055;-61
2023/12/19 07:25:35;;;;;;;16.30;9.88;;;8.20;99.90;;;;;;4267404;27;20054;-60
2023/12/19 07:27:37;;;;;;;17.73;9.68;;;8.30;99.90;;;;;;4265237;27;20043;-61
2023/12/19 07:29:42;;;;;;;16.02;10.20;;;8.30;99.90;;;;;;4264726;27;20045;-61
2023/12/19 07:31:45;;;;;;;13.95;9.45;;;8.40;99.90;;;;;;4265228;27;20121;-60
2023/12/19 07:33:47;;;;;;;16.13;10.68;;;8.30;99.90;;;;;;4264987;27;20051;-60
2023/12/19 07:35:51;;;;;;;17.52;9.90;;;8.30;99.90;;;;;;4265099;27;20043;-60
2023/12/19 07:37:54;;;;;;;16.60;10.90;;;8.20;99.90;;;;;;4265359;27;20136;-60
2023/12/19 07:39:56;;;;;;;15.07;9.70;;;8.20;99.90;;;;;;4246959;28;20063;-61
2023/12/19 07:42:00;;;;;;;14.57;8.48;;;8.00;99.90;;;;;;4265844;27;20107;-61
2023/12/19 07:44:02;;;;;;;15.45;10.50;;;8.00;99.90;;;;;;4265516;27;20453;-62
2023/12/19 07:46:06;;;;;;;15.00;9.55;;;8.10;99.90;;;;;;4264995;27;20099;-60
2023/12/19 07:48:08;;;;;;;18.13;11.18;;;8.10;99.90;;;;;;4265075;27;20091;-62
2023/12/19 07:50:10;;;;;;;17.90;9.65;;;8.10;99.90;;;;;;4265108;27;20111;-61
2023/12/19 07:52:14;;;;;;;15.63;9.57;;;8.20;99.90;;;;;;4265120;27;20042;-61
2023/12/19 07:54:17;;;;;;;14.32;9.73;;;8.20;99.90;;;;;;4264971;27;20047;-61
2023/12/19 07:56:19;;;;;;;20.60;10.73;;;8.30;99.90;;;;;;4264652;27;20076;-61
2023/12/19 07:58:21;;;;;;;17.40;10.10;;;8.30;99.90;;;;;;4264390;27;20053;-61
2023/12/19 08:00:23;;;;;;;14.75;9.82;;;8.40;99.90;;;;;;4264860;27;20081;-61
2023/12/19 08:02:25;;;;;;;18.40;10.82;;;8.40;99.90;;;;;;4264898;27;20049;-62
2023/12/19 08:04:29;;;;;;;17.10;9.15;;;8.40;99.90;;;;;;4264946;27;20042;-61
2023/12/19 08:06:32;;;;;;;19.52;10.43;;;8.40;99.90;;;;;;4264971;27;20145;-61
2023/12/19 08:08:35;;;;;;;16.08;10.43;;;8.50;99.90;;;;;;4265046;27;20528;-61
2023/12/19 08:10:37;;;;;;;14.20;9.82;;;8.40;99.90;;;;;;4264933;27;20485;-61
2023/12/19 08:12:39;;;;;;;23.73;11.15;;;8.40;99.90;;;;;;4246503;28;20102;-61
2023/12/19 08:14:42;;;;;;;17.90;9.98;;;8.40;99.90;;;;;;4264564;27;20049;-62
2023/12/19 08:16:44;;;;;;;15.20;9.18;;;8.40;99.90;;;;;;4246474;28;20098;-61
2023/12/19 08:18:50;;;;;;;17.58;9.93;;;8.50;99.90;;;;;;4264804;27;20047;-61
2023/12/19 08:20:53;;;;;;;16.20;10.52;;;8.40;99.90;;;;;;4265404;27;20114;-61
2023/12/19 08:22:55;;;;;;;20.92;10.48;;;8.40;99.90;;;;;;4265268;27;20042;-62
2023/12/19 08:24:59;;;;;;;17.83;9.98;;;8.40;99.90;;;;;;4266106;27;20070;-67
2023/12/19 08:27:02;;;;;;;16.15;10.68;;;8.50;99.90;;;;;;4265992;27;20097;-62
2023/12/19 08:29:04;;;;;;;15.75;10.05;;;8.50;99.90;;;;;;4268102;27;20047;-61
2023/12/19 08:31:06;;;;;;;18.02;10.90;;;8.50;99.90;;;;;;4269224;27;20107;-61
2023/12/19 08:33:09;;;;;;;18.02;10.52;;;8.50;99.90;;;;;;4268924;27;20439;-61
2023/12/19 08:35:11;;;;;;;19.25;11.02;;;8.50;99.90;;;;;;4269217;27;20044;-60
2023/12/19 08:37:13;;;;;;;21.08;10.80;;;8.40;99.90;;;;;;4267677;27;20054;-60
2023/12/19 08:39:17;;;;;;;22.60;11.82;;;8.50;99.90;;;;;;4267995;27;20047;-59
2023/12/19 08:41:20;;;;;;;21.33;10.60;;;8.40;99.90;;;;;;4267567;27;20038;-61
2023/12/19 08:43:23;;;;;;;17.65;10.50;;;8.40;99.90;;;;;;4267135;27;20417;-60
2023/12/19 08:45:29;;;;;;;15.23;10.00;;;8.40;99.90;;;;;;4266851;27;20061;-60
2023/12/19 08:47:31;;;;;;;19.45;10.52;;;8.40;99.90;;;;;;4267571;27;20252;-61
2023/12/19 08:49:33;;;;;;;20.17;10.30;;;8.40;99.90;;;;;;4268689;27;20050;-64
2023/12/19 08:51:35;;;;;;;16.67;10.65;;;8.40;99.90;;;;;;4269699;27;20055;-61
2023/12/19 08:53:37;;;;;;;16.13;9.98;;;8.40;99.90;;;;;;4267689;27;20043;-61
2023/12/19 08:55:42;;;;;;;18.33;10.57;;;8.40;99.90;;;;;;4267311;27;20131;-60
2023/12/19 08:57:46;;;;;;;22.50;10.77;;;8.40;99.90;;;;;;4267213;27;20059;-60
2023/12/19 08:59:48;;;;;;;14.70;10.30;;;8.30;99.90;;;;;;4267312;27;20074;-62
2023/12/19 09:01:50;;;;;;;22.92;11.18;;;8.30;99.90;;;;;;4267371;27;20039;-61
2023/12/19 09:03:52;;;;;;;18.48;10.32;;;8.40;99.90;;;;;;4267913;27;20043;-61
2023/12/19 09:05:55;;;;;;;18.63;10.50;;;8.20;99.90;;;;;;4268316;27;20468;-61
2023/12/19 09:07:58;;;;;;;19.70;11.05;;;8.30;99.90;;;;;;4268291;27;20058;-62
2023/12/19 09:10:00;;;;;;;27.48;10.05;;;8.30;99.90;;;;;;4267699;27;20394;-60
2023/12/19 09:12:02;;;;;;;23.08;10.85;;;8.40;99.90;;;;;;4266989;27;20042;-61
2023/12/19 09:14:06;;;;;;;18.45;11.13;;;8.40;99.90;;;;;;4267112;27;20122;-61
2023/12/19 09:16:08;;;;;;;20.55;10.18;;;8.40;99.90;;;;;;4267066;27;20051;-60
2023/12/19 09:18:10;;;;;;;15.20;10.18;;;8.40;99.90;;;;;;4266696;27;20283;-61
2023/12/19 09:20:13;;;;;;;19.27;10.32;;;8.30;99.90;;;;;;4266498;27;20383;-61
2023/12/19 09:22:16;;;;;;;18.50;10.43;;;8.40;99.90;;;;;;4266954;27;20070;-60
2023/12/19 09:24:18;;;;;;;18.65;10.63;;;8.40;99.90;;;;;;4266647;27;20047;-61
2023/12/19 09:26:20;;;;;;;23.08;11.32;;;8.40;99.90;;;;;;4266494;27;20042;-61
2023/12/19 09:28:23;;;;;;;19.70;10.65;;;8.30;99.90;;;;;;4266460;27;20057;-61
2023/12/19 09:30:27;;;;;;;19.35;10.80;;;8.30;99.90;;;;;;4266535;27;20446;-61
2023/12/19 09:32:29;;;;;;;19.00;9.95;;;8.40;99.90;;;;;;4266677;27;20482;-60
2023/12/19 09:34:31;;;;;;;22.95;10.77;;;8.40;99.90;;;;;;4266682;27;20397;-61
2023/12/19 09:36:36;;;;;;;15.23;10.10;;;8.30;99.90;;;;;;4266551;27;20051;-61
2023/12/19 09:38:54;;;;;;;20.05;9.95;;;8.50;99.90;;;;;;4266390;27;20054;-61
2023/12/19 09:40:57;;;;;;;18.95;10.77;;;8.50;99.90;;;;;;4265956;27;20054;-61
2023/12/19 09:42:59;;;;;;;16.30;10.70;;;8.60;99.90;;;;;;4265985;27;20046;-64
2023/12/19 09:45:02;;;;;;;15.48;9.38;;;8.70;99.90;;;;;;4266515;27;20457;-61
2023/12/19 09:47:05;;;;;;;16.95;9.77;;;8.70;99.90;;;;;;4247919;27;20047;-61
2023/12/19 09:49:10;;;;;;;14.43;9.38;;;8.70;99.90;;;;;;4266169;27;20063;-61
2023/12/19 09:51:25;;;;;;;15.02;9.75;;;8.80;99.90;;;;;;4266266;27;20134;-61
2023/12/19 09:53:29;;;;;;;15.18;9.50;;;8.80;99.90;;;;;;4266480;27;20125;-60
2023/12/19 09:55:44;;;;;;;18.67;10.05;;;8.90;99.90;;;;;;4265833;27;20386;-61
2023/12/19 09:57:47;;;;;;;15.32;9.85;;;8.80;99.90;;;;;;4266590;27;20051;-61
2023/12/19 09:59:54;;;;;;;18.50;10.63;;;8.70;99.90;;;;;;4266187;27;20125;-60
2023/12/19 10:01:58;;;;;;;18.83;9.98;;;8.80;99.90;;;;;;4265967;27;20043;-61
2023/12/19 10:04:08;;;;;;;19.00;9.60;;;8.80;99.90;;;;;;4266058;27;20062;-61
2023/12/19 10:06:10;;;;;;;16.73;9.57;;;8.80;99.90;;;;;;4265824;27;20054;-60
2023/12/19 10:08:14;;;;;;;16.20;9.80;;;8.80;99.90;;;;;;4265748;27;20047;-60
2023/12/19 10:10:16;;;;;;;17.15;8.98;;;8.90;99.90;;;;;;4265716;27;20530;-60
2023/12/19 10:12:18;;;;;;;15.05;9.68;;;8.80;99.90;;;;;;4265799;27;20043;-60
2023/12/19 10:14:21;;;;;;;18.67;9.07;;;8.80;99.90;;;;;;4265821;27;20121;-60
2023/12/19 10:16:23;;;;;;;17.38;10.27;;;8.90;99.90;;;;;;4265910;27;20097;-60
2023/12/19 10:18:39;;;;;;;18.48;10.30;;;9.00;99.90;;;;;;4265703;27;20058;-64
2023/12/19 10:20:49;;;;;;;15.50;9.63;;;8.90;99.90;;;;;;4265675;27;20053;-60
2023/12/19 10:23:01;;;;;;;19.20;9.52;;;9.00;99.90;;;;;;4265851;27;20078;-60
2023/12/19 10:25:04;;;;;;;17.25;8.43;;;9.10;99.90;;;;;;4265292;27;20047;-60
2023/12/19 10:27:06;;;;;;;14.02;9.40;;;9.10;99.90;;;;;;4265788;27;20038;-61
2023/12/19 10:29:11;;;;;;;13.80;8.80;;;9.00;99.90;;;;;;4265755;27;20509;-60
2023/12/19 10:31:17;;;;;;;16.50;9.93;;;9.20;99.90;;;;;;4265999;27;20049;-61
2023/12/19 10:33:19;;;;;;;18.80;9.00;;;9.30;99.90;;;;;;4247880;27;20092;-61
2023/12/19 10:35:22;;;;;;;15.80;9.48;;;9.30;99.90;;;;;;4265567;27;20050;-61